Time;durP1;ratioP1;P1;durP2;ratioP2;P2;SDS_P1;SDS_P2;PMS_P1;PMS_P2;Temp;Humidity;BMP_temperature;BMP_pressure;BME280_temperature;BME280_humidity;BME280_pressure;Samples;Min_cycle;Max_cycle;Signal;HPM_P1;HPM_P2
2021/12/15 00:00:46;;;;;;;24.73;15.00;;;5.90;99.90;;;;;;5053426;28;20090;-86
2021/12/15 00:03:15;;;;;;;19.85;13.82;;;5.90;99.90;;;;;;5054133;28;20028;-86
2021/12/15 00:05:41;;;;;;;19.80;13.60;;;5.80;99.90;;;;;;5072041;28;20016;-87
2021/12/15 00:08:11;;;;;;;22.30;13.57;;;5.80;99.90;;;;;;5053571;28;20476;-86
2021/12/15 00:10:41;;;;;;;21.33;15.25;;;5.80;99.90;;;;;;5053783;28;20032;-87
2021/12/15 00:13:07;;;;;;;27.05;14.68;;;5.80;99.90;;;;;;5053735;28;20021;-87
2021/12/15 00:15:34;;;;;;;31.13;13.68;;;5.80;99.90;;;;;;5070011;28;20020;-86
2021/12/15 00:18:00;;;;;;;21.95;14.43;;;5.80;99.90;;;;;;5070070;28;20113;-86
2021/12/15 00:20:27;;;;;;;28.17;13.43;;;5.80;99.90;;;;;;5052147;28;20468;-87
2021/12/15 00:22:53;;;;;;;21.48;12.35;;;5.80;99.90;;;;;;5051961;28;20404;-87
2021/12/15 00:25:27;;;;;;;19.05;11.98;;;5.90;99.90;;;;;;5051820;28;20017;-86
2021/12/15 00:27:53;;;;;;;18.42;12.65;;;5.90;99.90;;;;;;5051969;28;20032;-87
2021/12/15 00:30:20;;;;;;;17.63;12.40;;;5.80;99.90;;;;;;5071199;28;20037;-87
2021/12/15 00:32:47;;;;;;;23.50;11.93;;;5.80;99.90;;;;;;5071324;28;20401;-87
2021/12/15 00:35:14;;;;;;;23.13;11.77;;;5.80;99.90;;;;;;5071230;28;20103;-87
2021/12/15 00:37:39;;;;;;;17.98;12.45;;;5.80;99.90;;;;;;5071507;28;20062;-87
2021/12/15 00:40:08;;;;;;;18.35;12.35;;;5.80;99.90;;;;;;5053123;28;20036;-87
2021/12/15 00:42:34;;;;;;;21.67;12.65;;;5.70;99.90;;;;;;5071279;28;20020;-86
2021/12/15 00:45:00;;;;;;;23.90;11.98;;;5.70;99.90;;;;;;5053317;28;20028;-86
2021/12/15 00:47:25;;;;;;;18.52;10.40;;;5.80;99.90;;;;;;5069909;28;20108;-86
2021/12/15 00:49:51;;;;;;;45.53;10.65;;;5.70;99.90;;;;;;5070184;28;20287;-86
2021/12/15 00:52:17;;;;;;;28.08;10.65;;;5.60;99.90;;;;;;5070268;28;20027;-86
2021/12/15 00:54:43;;;;;;;20.23;10.13;;;5.50;99.90;;;;;;5070373;28;20074;-86
2021/12/15 00:57:09;;;;;;;15.82;9.30;;;5.50;99.90;;;;;;5070327;28;20024;-86
2021/12/15 00:59:36;;;;;;;17.77;11.18;;;5.50;99.90;;;;;;5070492;28;20035;-86
2021/12/15 01:02:02;;;;;;;17.45;9.90;;;5.60;99.90;;;;;;5070337;28;20029;-87
2021/12/15 01:04:30;;;;;;;31.67;12.10;;;5.70;99.90;;;;;;5069818;28;20436;-86
2021/12/15 01:07:02;;;;;;;13.43;9.95;;;5.60;99.90;;;;;;5051940;28;20377;-86
2021/12/15 01:09:39;;;;;;;14.02;9.27;;;5.60;99.90;;;;;;5070014;28;20033;-86
2021/12/15 01:14:30;;;;;;;14.98;10.15;;;5.60;99.90;;;;;;5070543;28;20532;-86
2021/12/15 01:20:30;;;;;;;17.52;9.32;;;5.70;99.90;;;;;;5069159;28;20093;-86
2021/12/15 01:22:59;;;;;;;15.57;9.52;;;5.60;99.90;;;;;;5070283;28;20024;-86
2021/12/15 01:25:33;;;;;;;18.73;9.75;;;5.60;99.90;;;;;;5069668;28;20028;-86
2021/12/15 01:27:59;;;;;;;18.65;11.18;;;5.50;99.90;;;;;;5069759;28;20485;-86
2021/12/15 01:30:28;;;;;;;15.00;9.98;;;5.50;99.90;;;;;;5051822;28;20052;-87
2021/12/15 01:32:56;;;;;;;16.52;10.18;;;5.50;99.90;;;;;;5070277;28;20454;-87
2021/12/15 01:35:22;;;;;;;14.45;10.02;;;5.60;99.90;;;;;;5077708;28;20104;-86
2021/12/15 01:37:50;;;;;;;15.63;10.23;;;5.70;99.90;;;;;;5075277;28;20013;-86
2021/12/15 01:40:34;;;;;;;14.95;9.85;;;5.70;99.90;;;;;;5055560;28;20036;-86
2021/12/15 01:43:02;;;;;;;18.33;10.60;;;5.70;99.90;;;;;;5068492;28;20267;-87
2021/12/15 01:48:14;;;;;;;16.15;10.88;;;5.80;99.90;;;;;;5071168;28;20416;-87
2021/12/15 01:50:41;;;;;;;17.17;11.63;;;5.80;99.90;;;;;;5069513;28;20055;-86
2021/12/15 01:53:07;;;;;;;16.33;10.65;;;5.80;99.90;;;;;;5069851;28;20023;-87
2021/12/15 01:55:33;;;;;;;17.23;9.75;;;5.80;99.90;;;;;;5069736;28;20032;-86
2021/12/15 01:57:59;;;;;;;16.02;10.15;;;5.70;99.90;;;;;;5070016;28;20533;-87
2021/12/15 02:00:27;;;;;;;15.52;10.40;;;5.70;99.90;;;;;;5068279;28;20024;-86
2021/12/15 02:02:54;;;;;;;14.80;10.23;;;5.60;99.90;;;;;;5050917;28;20035;-86
2021/12/15 02:05:22;;;;;;;15.70;10.32;;;5.60;99.90;;;;;;5068763;28;20397;-86
2021/12/15 02:07:48;;;;;;;16.80;10.93;;;5.60;99.90;;;;;;5068940;28;20071;-86
2021/12/15 02:10:16;;;;;;;16.75;11.25;;;5.70;99.90;;;;;;5069080;28;20033;-86
2021/12/15 02:12:43;;;;;;;15.70;10.70;;;5.70;99.90;;;;;;5068785;28;20012;-87
2021/12/15 02:15:13;;;;;;;16.65;11.27;;;5.60;99.90;;;;;;5070320;28;20024;-86
2021/12/15 02:17:40;;;;;;;20.33;12.23;;;5.60;99.90;;;;;;5051732;28;20032;-86
2021/12/15 02:20:08;;;;;;;17.85;12.23;;;5.70;99.90;;;;;;5069502;28;20024;-86
2021/12/15 02:22:37;;;;;;;19.58;12.15;;;5.70;99.90;;;;;;5051376;28;20028;-87
2021/12/15 02:25:06;;;;;;;18.17;12.15;;;5.70;99.90;;;;;;5069242;28;20059;-86
2021/12/15 02:27:34;;;;;;;19.83;12.40;;;5.70;99.90;;;;;;5069181;28;20025;-86
2021/12/15 02:30:18;;;;;;;19.63;12.05;;;5.80;99.90;;;;;;5069134;28;20037;-86
2021/12/15 02:33:00;;;;;;;16.63;11.27;;;5.80;99.90;;;;;;5054685;28;20066;-87
2021/12/15 02:38:10;;;;;;;15.20;10.63;;;6.00;99.90;;;;;;5074030;28;20105;-86
2021/12/15 02:40:36;;;;;;;15.10;10.45;;;5.90;99.90;;;;;;5073601;28;20473;-86
2021/12/15 02:43:02;;;;;;;13.45;9.65;;;5.90;99.90;;;;;;5073688;28;20021;-86
2021/12/15 02:45:28;;;;;;;13.65;9.23;;;5.90;99.90;;;;;;5055331;28;20036;-87
2021/12/15 02:47:55;;;;;;;12.10;8.48;;;5.70;99.90;;;;;;5072906;28;20412;-86
2021/12/15 02:50:25;;;;;;;13.80;10.05;;;5.60;99.90;;;;;;5073294;28;20052;-86
2021/12/15 02:52:52;;;;;;;14.32;9.75;;;5.60;99.90;;;;;;5073169;28;20419;-86
2021/12/15 02:55:18;;;;;;;13.57;9.40;;;5.60;99.90;;;;;;5055568;28;20097;-86
2021/12/15 02:57:45;;;;;;;12.98;9.02;;;5.60;99.90;;;;;;5073720;28;20021;-86
2021/12/15 03:00:23;;;;;;;14.52;9.38;;;5.60;99.90;;;;;;5073391;28;20500;-86
2021/12/15 03:05:34;;;;;;;13.90;9.77;;;5.50;99.90;;;;;;5072329;28;20034;-86
2021/12/15 03:15:57;;;;;;;;;;;5.70;99.90;;;;;;5072723;28;20039;-87
2021/12/15 03:18:25;;;;;;;12.20;8.18;;;5.70;99.90;;;;;;5054302;28;19909;-86
2021/12/15 03:21:05;;;;;;;10.48;7.30;;;5.70;99.90;;;;;;5072822;28;20021;-86
2021/12/15 03:23:43;;;;;;;13.93;7.05;;;5.50;99.90;;;;;;5073277;28;20021;-86
2021/12/15 03:26:11;;;;;;;9.38;6.47;;;5.50;99.90;;;;;;5072670;28;20527;-86
2021/12/15 03:36:41;;;;;;;11.50;8.30;;;5.50;99.90;;;;;;5072336;28;20028;-86
2021/12/15 03:39:10;;;;;;;10.00;7.57;;;5.40;99.90;;;;;;5072919;28;20604;-85
2021/12/15 03:41:36;;;;;;;13.30;8.57;;;5.40;99.90;;;;;;5054397;28;20028;-86
2021/12/15 03:44:04;;;;;;;10.00;7.45;;;5.30;99.90;;;;;;5071478;28;20028;-86
2021/12/15 03:46:31;;;;;;;12.55;8.05;;;5.40;99.90;;;;;;5072708;28;20074;-85
2021/12/15 03:48:57;;;;;;;10.75;7.35;;;5.50;99.90;;;;;;5070943;28;20029;-86
2021/12/15 03:51:23;;;;;;;9.93;7.40;;;5.40;99.90;;;;;;5071781;28;20389;-86
2021/12/15 03:53:49;;;;;;;10.52;7.25;;;5.40;99.90;;;;;;5071490;28;20461;-85
2021/12/15 03:56:16;;;;;;;10.13;7.43;;;5.40;99.90;;;;;;5071547;28;20032;-85
2021/12/15 03:58:43;;;;;;;10.88;7.25;;;5.50;99.90;;;;;;5053852;28;20431;-85
2021/12/15 04:01:19;;;;;;;10.02;7.35;;;5.40;99.90;;;;;;5071482;28;20056;-86
2021/12/15 04:03:48;;;;;;;9.05;7.10;;;5.40;99.90;;;;;;5070139;28;20027;-85
2021/12/15 04:06:21;;;;;;;9.18;6.97;;;5.40;99.90;;;;;;5070324;28;20025;-86
2021/12/15 04:08:47;;;;;;;10.48;7.32;;;5.40;99.90;;;;;;5070343;28;20089;-86
2021/12/15 04:11:16;;;;;;;10.35;7.28;;;5.40;99.90;;;;;;5070019;28;20090;-86
2021/12/15 04:13:45;;;;;;;10.25;6.68;;;5.30;99.90;;;;;;5070220;28;20103;-86
2021/12/15 04:16:26;;;;;;;9.15;6.28;;;5.40;99.90;;;;;;5052224;28;20020;-86
2021/12/15 04:18:52;;;;;;;8.40;6.47;;;5.40;99.90;;;;;;5071574;28;20028;-86
2021/12/15 04:21:18;;;;;;;8.10;6.30;;;5.40;99.90;;;;;;5071876;28;20025;-86
2021/12/15 04:23:52;;;;;;;9.65;7.13;;;5.30;99.90;;;;;;5071685;28;20239;-86
2021/12/15 04:26:18;;;;;;;11.05;7.63;;;5.30;99.90;;;;;;5071355;28;20035;-86
2021/12/15 04:28:44;;;;;;;10.60;7.20;;;5.30;99.90;;;;;;5071392;28;20376;-86
2021/12/15 04:31:14;;;;;;;9.68;7.15;;;5.30;99.90;;;;;;5071435;28;20078;-86
2021/12/15 04:33:45;;;;;;;9.25;6.68;;;5.40;99.90;;;;;;5052959;28;20028;-86
2021/12/15 04:36:13;;;;;;;8.70;6.35;;;5.40;99.90;;;;;;5070834;28;20032;-86
2021/12/15 04:38:40;;;;;;;10.43;7.03;;;5.30;99.90;;;;;;5070575;28;20028;-86
2021/12/15 04:41:10;;;;;;;9.52;6.82;;;5.20;99.90;;;;;;5070570;28;20504;-86
2021/12/15 04:43:39;;;;;;;23.65;8.55;;;5.20;99.90;;;;;;5052664;28;20052;-86
2021/12/15 04:46:08;;;;;;;10.23;7.18;;;5.20;99.90;;;;;;5070193;28;20024;-86
2021/12/15 04:48:36;;;;;;;8.50;6.63;;;5.20;99.90;;;;;;5052267;28;20025;-86
2021/12/15 04:51:02;;;;;;;10.18;6.70;;;5.20;99.90;;;;;;5052122;28;20044;-86
2021/12/15 04:53:28;;;;;;;9.45;6.80;;;5.20;99.90;;;;;;5052053;28;20397;-86
2021/12/15 04:55:54;;;;;;;9.63;6.78;;;5.20;99.90;;;;;;5070187;28;20025;-86
2021/12/15 04:58:20;;;;;;;8.30;6.22;;;5.30;99.90;;;;;;5070716;28;20099;-86
2021/12/15 05:00:57;;;;;;;8.40;6.63;;;5.40;99.90;;;;;;5070294;28;20031;-86
2021/12/15 05:03:25;;;;;;;12.35;6.57;;;5.40;99.90;;;;;;5052471;28;20020;-86
2021/12/15 05:05:51;;;;;;;9.07;6.30;;;5.30;99.90;;;;;;5070995;28;20415;-86
2021/12/15 05:08:17;;;;;;;8.35;5.93;;;5.30;99.90;;;;;;5070887;28;20023;-86
2021/12/15 05:10:43;;;;;;;8.20;6.00;;;5.30;99.90;;;;;;5052821;28;20036;-86
2021/12/15 05:13:10;;;;;;;9.32;6.15;;;5.30;99.90;;;;;;5070723;28;20017;-86
2021/12/15 05:15:37;;;;;;;8.77;6.15;;;5.40;99.90;;;;;;5070803;28;20218;-86
2021/12/15 05:18:05;;;;;;;8.70;5.97;;;5.40;99.90;;;;;;5071105;28;20259;-86
2021/12/15 05:20:33;;;;;;;9.07;6.43;;;5.40;99.90;;;;;;5052048;28;20117;-86
2021/12/15 05:22:59;;;;;;;8.73;6.63;;;5.40;99.90;;;;;;5069768;28;20017;-86
2021/12/15 05:25:24;;;;;;;9.70;7.18;;;5.40;99.90;;;;;;5073186;28;20044;-87
2021/12/15 05:27:50;;;;;;;11.48;6.60;;;5.30;99.90;;;;;;5069199;28;20119;-86
2021/12/15 05:30:18;;;;;;;10.77;7.00;;;5.40;99.90;;;;;;5050967;28;20036;-86
2021/12/15 05:32:44;;;;;;;9.57;6.30;;;5.40;99.90;;;;;;5068909;28;20017;-86
2021/12/15 05:35:15;;;;;;;11.93;6.93;;;5.40;99.90;;;;;;5080935;28;20025;-86
2021/12/15 05:37:40;;;;;;;10.13;7.15;;;5.30;99.90;;;;;;5079681;28;20189;-86
2021/12/15 05:40:07;;;;;;;10.48;7.18;;;5.30;99.90;;;;;;5081286;28;20097;-86
2021/12/15 05:42:33;;;;;;;33.15;9.80;;;5.30;99.90;;;;;;5080353;28;20499;-85
2021/12/15 05:44:58;;;;;;;11.95;7.25;;;5.30;99.90;;;;;;5078903;28;20091;-87
2021/12/15 05:47:25;;;;;;;96.40;15.70;;;5.30;99.90;;;;;;5062662;28;20040;-85
2021/12/15 05:49:53;;;;;;;11.20;7.25;;;5.30;99.90;;;;;;5076853;28;20033;-86
2021/12/15 05:52:19;;;;;;;9.75;7.53;;;5.30;99.90;;;;;;5055471;28;20054;-86
2021/12/15 05:54:46;;;;;;;10.85;7.70;;;5.30;99.90;;;;;;5070755;28;20025;-86
2021/12/15 05:57:12;;;;;;;10.10;7.30;;;5.30;99.90;;;;;;5077138;28;20021;-85
2021/12/15 05:59:39;;;;;;;9.10;7.13;;;5.30;99.90;;;;;;5078177;28;20285;-86
2021/12/15 06:02:06;;;;;;;8.48;6.43;;;5.30;99.90;;;;;;5074684;28;20517;-86
2021/12/15 06:04:32;;;;;;;7.50;6.07;;;5.30;99.90;;;;;;5076720;28;20024;-86
2021/12/15 06:06:58;;;;;;;8.93;6.38;;;5.30;99.90;;;;;;5080978;28;20222;-86
2021/12/15 06:09:24;;;;;;;8.35;5.93;;;5.30;99.90;;;;;;5066672;28;20028;-86
2021/12/15 06:11:53;;;;;;;8.60;7.07;;;5.30;99.90;;;;;;5084437;28;20024;-86
2021/12/15 06:14:23;;;;;;;9.82;7.20;;;5.30;99.90;;;;;;5062883;28;20036;-86
2021/12/15 06:16:51;;;;;;;9.13;6.72;;;5.30;99.90;;;;;;5084313;28;20022;-86
2021/12/15 06:19:18;;;;;;;9.88;7.07;;;5.30;99.90;;;;;;5074795;28;20028;-86
2021/12/15 06:21:45;;;;;;;8.95;6.60;;;5.40;99.90;;;;;;5062177;28;20214;-87
2021/12/15 06:24:10;;;;;;;11.07;7.30;;;5.30;99.90;;;;;;5076250;28;20032;-90
2021/12/15 06:26:36;;;;;;;9.88;6.82;;;5.30;99.90;;;;;;5074253;28;20017;-89
2021/12/15 06:29:03;;;;;;;9.85;7.10;;;5.30;99.90;;;;;;5074201;28;20549;-90
2021/12/15 06:31:28;;;;;;;12.18;7.32;;;5.30;99.90;;;;;;5073948;28;20488;-90
2021/12/15 06:33:54;;;;;;;10.15;7.63;;;5.30;99.90;;;;;;5074078;28;20020;-90
2021/12/15 06:36:21;;;;;;;10.60;7.95;;;5.30;99.90;;;;;;5073510;28;20032;-90
2021/12/15 06:38:50;;;;;;;11.15;7.75;;;5.40;99.90;;;;;;5055286;28;20098;-90
2021/12/15 06:41:16;;;;;;;11.00;7.63;;;5.30;99.90;;;;;;5054999;28;20024;-92
2021/12/15 06:43:46;;;;;;;11.65;7.65;;;5.30;99.90;;;;;;5073006;28;20517;-90
2021/12/15 06:59:54;;;;;;;18.63;8.52;;;5.50;99.90;;;;;;5073048;28;20515;-92
2021/12/15 07:02:21;;;;;;;9.88;6.57;;;5.50;99.90;;;;;;5055266;28;20171;-90
2021/12/15 07:04:46;;;;;;;11.82;6.45;;;5.50;99.90;;;;;;5072467;28;20025;-90
2021/12/15 07:07:12;;;;;;;13.25;6.28;;;5.40;99.90;;;;;;5054796;28;20031;-94
2021/12/15 07:09:39;;;;;;;10.35;6.28;;;5.40;99.90;;;;;;5072437;28;20032;-91
2021/12/15 07:12:05;;;;;;;88.68;13.02;;;5.40;99.90;;;;;;5072497;28;20310;-90
2021/12/15 07:14:32;;;;;;;8.82;6.35;;;5.40;99.90;;;;;;5072600;28;20025;-90
2021/12/15 07:16:58;;;;;;;8.88;6.05;;;5.30;99.90;;;;;;5072197;28;20048;-91
2021/12/15 07:22:06;;;;;;;9.63;6.72;;;5.30;99.90;;;;;;5073631;28;20028;-90
2021/12/15 07:24:34;;;;;;;10.32;7.00;;;5.20;99.90;;;;;;5055435;28;20123;-90
2021/12/15 07:27:00;;;;;;;9.55;6.65;;;5.20;99.90;;;;;;5055188;28;20108;-91
2021/12/15 07:29:27;;;;;;;9.48;6.75;;;5.20;99.90;;;;;;5055541;28;20059;-91
2021/12/15 07:31:54;;;;;;;9.70;7.38;;;5.30;99.90;;;;;;5072875;28;20028;-90
2021/12/15 07:34:19;;;;;;;11.25;7.32;;;5.30;99.90;;;;;;5055317;28;20465;-91
2021/12/15 07:36:45;;;;;;;9.90;7.40;;;5.40;99.90;;;;;;5073209;28;20065;-91
2021/12/15 07:39:12;;;;;;;12.07;8.48;;;5.40;99.90;;;;;;5060103;28;20036;-90
2021/12/15 07:41:53;;;;;;;12.07;8.45;;;5.40;99.90;;;;;;5087683;28;20025;-90
2021/12/15 07:44:20;;;;;;;9.68;7.28;;;5.30;99.90;;;;;;5054229;28;20020;-91
2021/12/15 07:46:51;;;;;;;10.50;7.22;;;5.30;99.90;;;;;;5054771;28;20421;-91
2021/12/15 07:49:18;;;;;;;9.00;6.57;;;5.20;99.90;;;;;;5072841;28;20040;-91
2021/12/15 07:51:45;;;;;;;9.35;6.65;;;5.20;99.90;;;;;;5054738;28;20111;-90
2021/12/15 07:54:12;;;;;;;11.40;7.07;;;5.10;99.90;;;;;;5072676;28;20020;-90
2021/12/15 07:56:38;;;;;;;8.75;6.28;;;5.10;99.90;;;;;;5054545;28;20055;-90
2021/12/15 07:59:04;;;;;;;10.82;6.95;;;5.10;99.90;;;;;;5072801;28;20051;-91
2021/12/15 08:01:30;;;;;;;9.18;6.60;;;5.10;99.90;;;;;;5072069;28;20035;-90
2021/12/15 08:03:56;;;;;;;9.63;6.38;;;5.20;99.90;;;;;;5072193;28;20678;-91
2021/12/15 08:06:24;;;;;;;10.82;6.65;;;5.10;99.90;;;;;;5053645;28;20397;-91
2021/12/15 08:08:51;;;;;;;8.50;6.13;;;5.10;99.90;;;;;;5052696;28;20024;-91
2021/12/15 08:11:17;;;;;;;8.95;6.75;;;5.00;99.90;;;;;;5070938;28;20031;-91
2021/12/15 08:13:43;;;;;;;11.30;7.97;;;5.10;99.90;;;;;;5071096;28;20116;-90
2021/12/15 08:16:09;;;;;;;11.15;8.07;;;5.10;99.90;;;;;;5053074;28;20028;-96
2021/12/15 08:18:35;;;;;;;10.70;6.95;;;5.20;99.90;;;;;;5054261;28;20074;-90
2021/12/15 08:21:04;;;;;;;9.48;6.85;;;5.30;99.90;;;;;;5054257;28;20037;-90
2021/12/15 08:23:30;;;;;;;8.50;6.22;;;5.20;99.90;;;;;;5054631;28;20024;-92
2021/12/15 08:25:56;;;;;;;10.43;6.60;;;5.10;99.90;;;;;;5072185;28;20039;-90
2021/12/15 08:28:22;;;;;;;8.82;6.53;;;5.10;99.90;;;;;;5072467;28;20050;-91
2021/12/15 08:30:49;;;;;;;10.00;7.03;;;5.20;99.90;;;;;;5054366;28;20507;-91
2021/12/15 08:33:18;;;;;;;11.68;7.57;;;5.20;99.90;;;;;;5054613;28;20108;-91
2021/12/15 08:35:53;;;;;;;10.05;7.47;;;5.30;99.90;;;;;;5054436;28;20115;-90
2021/12/15 08:38:20;;;;;;;9.05;6.82;;;5.20;99.90;;;;;;5054611;28;20017;-91
2021/12/15 08:40:47;;;;;;;7.57;5.25;;;5.20;99.90;;;;;;5055236;28;20039;-91
2021/12/15 08:43:15;;;;;;;7.38;5.47;;;5.20;99.90;;;;;;5056533;28;20052;-91
2021/12/15 08:45:46;;;;;;;9.38;7.00;;;5.20;99.90;;;;;;5055470;28;20048;-91
2021/12/15 08:48:12;;;;;;;8.38;5.72;;;5.30;99.90;;;;;;5073047;28;20048;-91
2021/12/15 08:50:40;;;;;;;6.95;4.93;;;5.30;99.90;;;;;;5057228;28;20079;-91
2021/12/15 08:53:10;;;;;;;8.55;6.07;;;5.30;99.90;;;;;;5072940;28;20203;-91
2021/12/15 08:55:41;;;;;;;8.13;5.30;;;5.30;99.90;;;;;;5078465;28;20025;-90
2021/12/15 08:58:10;;;;;;;7.38;5.57;;;5.40;99.90;;;;;;5077298;28;20024;-91
2021/12/15 09:00:38;;;;;;;11.77;8.07;;;5.50;99.90;;;;;;5077841;28;20036;-91
2021/12/15 09:03:03;;;;;;;8.32;6.22;;;5.60;99.90;;;;;;5076260;28;20028;-92
2021/12/15 09:05:30;;;;;;;8.48;5.90;;;5.60;99.90;;;;;;5077903;28;20058;-90
2021/12/15 09:07:58;;;;;;;8.75;5.90;;;5.60;99.90;;;;;;5078498;28;20024;-90
2021/12/15 09:10:26;;;;;;;8.52;5.18;;;5.60;99.90;;;;;;5095687;28;20040;-91
2021/12/15 09:12:52;;;;;;;8.07;5.28;;;5.60;99.90;;;;;;5096665;28;20016;-90
2021/12/15 09:15:18;;;;;;;8.82;5.43;;;5.60;99.90;;;;;;5096676;28;20008;-90
2021/12/15 09:17:45;;;;;;;10.25;5.82;;;5.60;99.90;;;;;;5079391;28;20062;-90
2021/12/15 09:20:18;;;;;;;8.75;6.05;;;5.60;99.90;;;;;;5096646;28;20012;-90
2021/12/15 09:22:46;;;;;;;9.68;5.55;;;5.70;99.90;;;;;;5096397;28;20092;-90
2021/12/15 09:25:13;;;;;;;7.50;5.70;;;5.70;99.90;;;;;;5076301;28;20032;-90
2021/12/15 09:27:39;;;;;;;6.95;5.25;;;5.70;99.90;;;;;;5096596;28;20078;-90
2021/12/15 09:30:08;;;;;;;9.52;5.35;;;5.70;99.90;;;;;;5078933;28;20020;-90
2021/12/15 09:32:34;;;;;;;7.35;5.40;;;5.90;99.90;;;;;;5078760;28;20032;-92
2021/12/15 09:35:00;;;;;;;8.45;6.10;;;6.10;99.90;;;;;;5079017;28;20205;-92
2021/12/15 09:37:28;;;;;;;6.50;4.28;;;6.10;99.90;;;;;;5078957;28;20028;-91
2021/12/15 09:39:55;;;;;;;6.65;4.63;;;6.10;99.90;;;;;;5078825;28;20028;-92
2021/12/15 09:42:27;;;;;;;7.10;4.30;;;6.00;99.90;;;;;;5081968;28;20169;-92
2021/12/15 09:44:59;;;;;;;6.15;4.35;;;5.90;99.90;;;;;;5099025;28;20053;-92
2021/12/15 09:47:51;;;;;;;6.13;4.47;;;6.00;99.90;;;;;;5098943;28;20052;-91
2021/12/15 10:06:50;;;;;;;6.28;4.43;;;6.10;99.90;;;;;;5075385;28;20408;-90
2021/12/15 10:17:43;;;;;;;5.00;4.07;;;6.40;99.90;;;;;;5077206;28;20051;-91
2021/12/15 10:20:15;;;;;;;5.15;4.05;;;6.50;99.90;;;;;;5057542;28;20052;-90
2021/12/15 10:22:45;;;;;;;6.10;4.38;;;6.50;99.90;;;;;;5056898;28;20070;-91
2021/12/15 10:25:13;;;;;;;5.97;4.63;;;6.50;99.90;;;;;;5057131;28;20025;-91
2021/12/15 10:27:41;;;;;;;5.88;4.43;;;6.60;99.90;;;;;;5074553;28;20021;-91
2021/12/15 10:30:19;;;;;;;6.65;3.92;;;6.60;99.90;;;;;;5056745;28;20131;-91
2021/12/15 10:32:48;;;;;;;5.25;4.30;;;6.70;99.90;;;;;;5074443;28;20108;-90
2021/12/15 10:35:19;;;;;;;5.93;4.47;;;6.70;99.90;;;;;;5074807;28;20048;-91
2021/12/15 10:38:08;;;;;;;5.95;4.18;;;6.70;99.90;;;;;;5056989;28;20112;-90
2021/12/15 10:40:40;;;;;;;7.18;3.90;;;6.80;99.90;;;;;;5075233;28;20032;-89
2021/12/15 10:43:06;;;;;;;4.78;3.30;;;6.90;99.90;;;;;;5056862;28;20039;-90
2021/12/15 10:45:42;;;;;;;4.32;3.35;;;6.90;99.90;;;;;;5057111;28;20464;-91
2021/12/15 10:48:15;;;;;;;4.47;3.10;;;6.80;99.90;;;;;;5056393;28;20040;-92
2021/12/15 10:50:42;;;;;;;4.35;3.20;;;6.60;99.90;;;;;;5056868;28;20373;-92
2021/12/15 10:53:08;;;;;;;4.22;2.60;;;6.60;99.90;;;;;;5055817;28;20401;-92
2021/12/15 10:55:37;;;;;;;4.13;2.70;;;6.50;99.90;;;;;;5056397;28;20028;-92
2021/12/15 10:58:42;;;;;;;3.58;2.47;;;6.50;99.90;;;;;;5056083;28;20052;-92
2021/12/15 11:01:33;;;;;;;5.25;3.47;;;6.50;99.90;;;;;;5056125;28;20038;-91
2021/12/15 11:04:00;;;;;;;5.20;3.20;;;6.60;99.90;;;;;;5056162;28;20435;-91
2021/12/15 11:06:33;;;;;;;3.67;2.75;;;6.60;99.90;;;;;;5057821;28;20021;-91
2021/12/15 11:09:13;;;;;;;3.58;2.58;;;6.70;99.90;;;;;;5056931;28;20055;-92
2021/12/15 11:12:03;;;;;;;3.63;2.92;;;6.80;99.90;;;;;;5076045;28;20036;-91
2021/12/15 11:14:33;;;;;;;3.75;2.83;;;7.00;99.90;;;;;;5056724;28;20059;-91
2021/12/15 11:17:11;;;;;;;6.60;3.58;;;7.20;99.90;;;;;;5078208;28;20504;-91
2021/12/15 11:20:08;;;;;;;5.93;3.55;;;7.30;99.90;;;;;;5093947;28;20537;-92
2021/12/15 11:22:40;;;;;;;5.32;3.63;;;7.50;99.90;;;;;;5075733;28;20024;-92
2021/12/15 11:25:33;;;;;;;5.25;3.08;;;7.50;99.90;;;;;;5094287;28;20599;-94
2021/12/15 11:28:13;;;;;;;5.15;3.10;;;7.60;99.90;;;;;;5100239;28;20024;-92
2021/12/15 11:31:06;;;;;;;3.25;2.45;;;7.70;99.90;;;;;;5101008;28;20103;-91
2021/12/15 11:33:41;;;;;;;5.18;2.65;;;7.70;99.90;;;;;;5076005;28;20052;-96
2021/12/15 11:36:31;;;;;;;4.57;3.20;;;7.70;99.90;;;;;;5075735;28;20020;-92
2021/12/15 11:39:10;;;;;;;4.85;3.58;;;7.80;99.90;;;;;;5061647;28;20032;-92
2021/12/15 11:41:40;;;;;;;5.82;3.53;;;8.00;99.90;;;;;;5075370;28;20020;-92
2021/12/15 11:44:27;;;;;;;4.88;3.08;;;8.00;99.90;;;;;;5093539;28;20389;-94
2021/12/15 11:47:01;;;;;;;4.53;3.22;;;8.20;99.90;;;;;;5075061;28;20140;-91
2021/12/15 11:49:34;;;;;;;6.55;3.67;;;8.20;99.90;;;;;;5093632;28;20484;-91
2021/12/15 11:52:02;;;;;;;6.88;3.33;;;8.10;99.90;;;;;;5075042;28;20071;-93
2021/12/15 11:54:35;;;;;;;4.80;3.60;;;8.20;99.90;;;;;;5075062;28;20384;-91
2021/12/15 11:57:06;;;;;;;5.15;3.72;;;8.30;99.90;;;;;;5093121;28;20173;-92
2021/12/15 11:59:33;;;;;;;4.32;3.22;;;8.40;99.90;;;;;;5074797;28;20024;-91
2021/12/15 12:02:18;;;;;;;4.18;2.83;;;8.50;99.90;;;;;;5074858;28;20506;-92
2021/12/15 12:04:52;;;;;;;3.85;2.80;;;8.60;99.90;;;;;;5074107;28;20017;-95
2021/12/15 12:07:38;;;;;;;5.97;3.30;;;8.60;99.90;;;;;;5075068;28;20047;-91
2021/12/15 12:10:21;;;;;;;5.78;3.55;;;8.60;99.90;;;;;;5074553;28;20093;-91
2021/12/15 12:12:52;;;;;;;5.38;2.85;;;8.70;99.90;;;;;;5074926;28;20092;-91
2021/12/15 12:15:21;;;;;;;4.22;3.10;;;8.80;99.90;;;;;;5074671;28;20043;-90
2021/12/15 12:17:49;;;;;;;2.97;2.35;;;8.70;99.90;;;;;;5075226;28;20031;-90
2021/12/15 12:20:24;;;;;;;5.05;3.03;;;8.70;99.90;;;;;;5075142;28;20082;-91
2021/12/15 12:22:51;;;;;;;4.78;2.70;;;8.80;99.90;;;;;;5075357;28;20089;-91
2021/12/15 12:25:24;;;;;;;2.67;1.95;;;8.90;99.90;;;;;;5093050;28;20039;-94
2021/12/15 12:27:51;;;;;;;3.00;2.30;;;8.90;99.90;;;;;;5074578;28;20098;-91
2021/12/15 12:30:22;;;;;;;2.85;2.15;;;8.90;99.90;;;;;;5092337;28;20396;-91
2021/12/15 12:32:49;;;;;;;2.80;2.25;;;8.90;99.90;;;;;;5092857;28;20020;-95
2021/12/15 12:35:23;;;;;;;2.92;1.80;;;8.90;99.90;;;;;;5092372;28;20056;-90
2021/12/15 12:37:56;;;;;;;2.97;2.20;;;8.90;99.90;;;;;;5092934;28;20032;-91
2021/12/15 12:40:35;;;;;;;3.17;2.10;;;9.00;99.90;;;;;;5074301;28;20028;-91
2021/12/15 12:43:19;;;;;;;3.55;2.22;;;9.10;99.90;;;;;;5092224;28;20057;-91
2021/12/15 12:45:53;;;;;;;;;;;9.10;99.90;;;;;;5093840;28;20102;-90
2021/12/15 12:57:54;;;;;;;2.58;2.10;;;9.20;99.90;;;;;;5075415;28;20093;-91
2021/12/15 12:59:43;;;;;;;3.00;2.17;;;9.40;99.90;;;;;;5092333;28;20073;-93
2021/12/15 13:05:49;;;;;;;4.10;2.40;;;9.50;99.90;;;;;;5088164;28;20028;-91
2021/12/15 13:08:17;;;;;;;3.60;2.47;;;9.70;99.90;;;;;;5074563;28;20020;-91
2021/12/15 13:10:54;;;;;;;4.72;2.15;;;9.70;99.90;;;;;;5074113;28;20039;-91
2021/12/15 13:13:37;;;;;;;3.03;1.98;;;9.60;99.90;;;;;;5073757;28;20028;-91
2021/12/15 13:16:11;;;;;;;5.38;1.80;;;9.70;99.90;;;;;;5074948;28;20028;-90
2021/12/15 13:18:50;;;;;;;3.70;2.00;;;9.60;99.90;;;;;;5074572;28;20070;-91
2021/12/15 13:21:21;;;;;;;2.63;1.77;;;9.60;99.90;;;;;;5096922;28;20020;-93
2021/12/15 13:23:51;;;;;;;3.08;1.83;;;9.70;99.90;;;;;;5080073;28;20024;-92
2021/12/15 13:29:48;;;;;;;3.10;2.22;;;9.70;99.90;;;;;;5092761;28;20097;-92
2021/12/15 13:32:14;;;;;;;3.53;2.45;;;9.70;99.90;;;;;;5073776;28;20027;-95
2021/12/15 13:34:45;;;;;;;3.80;2.90;;;9.80;99.90;;;;;;5073714;28;20024;-92
2021/12/15 13:37:31;;;;;;;3.80;2.47;;;9.80;99.90;;;;;;5073492;28;20043;-93
2021/12/15 13:39:57;;;;;;;3.03;2.00;;;9.80;99.90;;;;;;5090981;28;20032;-92
2021/12/15 13:42:53;;;;;;;2.85;1.73;;;9.80;99.90;;;;;;5092916;28;20047;-91
2021/12/15 13:45:31;;;;;;;3.35;2.83;;;9.80;99.90;;;;;;5092800;28;20020;-92
2021/12/15 13:47:58;;;;;;;4.40;2.40;;;9.90;99.90;;;;;;5073952;28;20056;-92
2021/12/15 13:50:29;;;;;;;5.18;3.15;;;9.90;99.90;;;;;;5074325;28;20040;-91
2021/12/15 13:53:01;;;;;;;4.63;2.85;;;9.90;99.90;;;;;;5091267;28;20020;-91
2021/12/15 13:55:40;;;;;;;3.10;2.20;;;9.90;99.90;;;;;;5073994;28;20024;-92
2021/12/15 13:58:08;;;;;;;2.80;1.95;;;9.90;99.90;;;;;;5074125;28;20024;-91
2021/12/15 14:00:58;;;;;;;2.50;1.90;;;9.80;99.90;;;;;;5092138;28;20028;-91
2021/12/15 14:03:28;;;;;;;3.60;2.22;;;9.80;99.90;;;;;;5073607;28;20032;-91
2021/12/15 14:06:03;;;;;;;3.90;2.90;;;9.90;99.90;;;;;;5073434;28;20024;-92
2021/12/15 14:08:36;;;;;;;3.40;2.83;;;9.80;99.90;;;;;;5074304;28;20034;-91
2021/12/15 14:11:25;;;;;;;4.07;2.80;;;9.80;99.90;;;;;;5073371;28;20036;-91
2021/12/15 14:14:21;;;;;;;6.10;3.10;;;9.90;99.90;;;;;;5074099;28;20039;-95
2021/12/15 14:16:53;;;;;;;4.47;2.97;;;9.90;99.90;;;;;;5073702;28;20080;-91
2021/12/15 14:19:27;;;;;;;3.38;2.58;;;9.80;99.90;;;;;;5073166;28;20097;-91
2021/12/15 14:22:03;;;;;;;4.80;2.35;;;9.60;99.90;;;;;;5074177;28;20387;-91
2021/12/15 14:24:29;;;;;;;4.50;2.53;;;9.50;99.90;;;;;;5074135;28;20051;-91
2021/12/15 14:26:55;;;;;;;4.15;2.78;;;9.40;99.90;;;;;;5074089;28;20109;-91
2021/12/15 14:29:27;;;;;;;3.38;2.45;;;9.30;99.90;;;;;;5076986;28;20496;-90
2021/12/15 14:31:58;;;;;;;4.72;3.10;;;9.40;99.90;;;;;;5095577;28;20028;-91